Monday, December 10, 2018, 9:22 PM EST
Back to Local

KSNC, Chester, Chester Airport

Location: Chester, CT, United States Lat: 41.384
Local Time: 9:22 PM EST ( 2:22 GMT) Lon: -72.506
Time Zone: US/Eastern Elev: 416 ft

Show me the last for .
Show Coded

Time T Td Feel RH Dir Speed Gust Alt SLP Vis Weather Sky Remarks
2018-12-10 20:55 28 16 23 58 350° 5 - 30.14 - 10 CLR None
2018-12-10 20:35 28 16 23 58 360° 5 - 30.14 - 10 CLR None
2018-12-10 20:15 28 16 21 58 10° 7 - 30.14 - 10 CLR None
2018-12-10 19:55 28 16 - 58 - Calm - 30.15 - 10 CLR None
2018-12-10 19:35 28 16 23 58 10° 5 - 30.14 - 10 CLR None
2018-12-10 19:15 30 16 25 54 360° 5 - 30.14 - 10 CLR None
2018-12-10 18:55 30 16 27 54 Variable 3 - 30.14 - 10 CLR None
2018-12-10 18:35 30 16 25 54 360° 5 - 30.13 - 10 CLR None
2018-12-10 18:15 28 16 - 58 - Calm - 30.12 - 10 CLR None
2018-12-10 17:55 28 16 - 58 - Calm - 30.12 - 10 CLR None
2018-12-10 17:35 30 16 - 54 - Calm - 30.11 - 10 CLR None
2018-12-10 17:15 30 16 27 54 350° 3 - 30.11 - 10 CLR None
2018-12-10 16:55 32 14 - 46 - Calm - 30.10 - 10 CLR None
2018-12-10 16:35 32 14 - 46 - Calm - 30.10 - 10 CLR None
2018-12-10 16:15 34 14 31 43 Variable 3 - 30.10 - 10 CLR None
2018-12-10 15:55 36 14 31 40 Variable 6 - 30.09 - 10 CLR None
2018-12-10 15:35 37 14 32 37 Variable 7 - 30.09 - 10 CLR None
2018-12-10 15:15 37 14 31 37 330° 9 - 30.08 - 10 CLR None
2018-12-10 14:55 37 14 29 37 350° 7 15 30.08 - 10 CLR None
2018-12-10 14:35 37 16 30 40 330° 10 - 30.08 - 10 CLR None
2018-12-10 14:15 37 16 29 40 Variable 7 14 30.08 - 10 CLR None
2018-12-10 13:55 37 16 29 40 30° 8 15 30.08 - 10 CLR None
2018-12-10 13:35 37 16 30 40 10° 12 - 30.08 - 10 CLR None
2018-12-10 13:15 37 16 31 40 30° 8 - 30.07 - 10 CLR None
2018-12-10 12:55 37 16 31 40 360° 9 - 30.08 - 10 CLR None
2018-12-10 12:35 36 16 25 43 350° 10 17 30.08 - 10 CLR None
2018-12-10 12:15 36 16 29 43 330° 9 - 30.08 - 10 CLR None
2018-12-10 11:55 36 16 25 43 340° 12 18 30.08 - 10 CLR None
2018-12-10 11:35 36 16 25 43 340° 13 21 30.08 - 10 CLR None
2018-12-10 11:15 36 16 25 43 350° 9 18 30.09 - 10 CLR None
2018-12-10 10:55 36 16 26 43 20° 8 16 30.09 - 10 CLR None
2018-12-10 10:35 36 16 26 43 40° 8 15 30.10 - 10 CLR None
2018-12-10 10:15 34 18 25 50 20° 12 - 30.11 - 10 CLR None
2018-12-10 09:55 34 18 26 50 30° 10 - 30.11 - 10 CLR None
2018-12-10 09:35 34 18 24 50 20° 8 16 30.11 - 10 CLR None
2018-12-10 09:15 32 18 26 54 Variable 7 - 30.10 - 10 CLR None
2018-12-10 08:55 30 18 23 58 350° 7 - 30.10 - 10 CLR None
2018-12-10 08:35 28 18 22 63 350° 6 - 30.09 - 10 CLR None
2018-12-10 08:15 27 18 20 68 330° 6 - 30.09 - 10 CLR None
2018-12-10 07:55 27 18 20 68 340° 6 - 30.08 - 10 CLR None
2018-12-10 07:35 25 16 19 68 340° 5 - 30.08 - 10 CLR None
2018-12-10 07:15 25 16 19 68 330° 5 - 30.07 - 10 CLR None
2018-12-10 06:55 25 16 18 68 340° 6 - 30.07 - 10 CLR None
2018-12-10 06:35 25 16 17 68 350° 7 - 30.07 - 10 CLR None
2018-12-10 06:15 25 16 18 68 350° 6 - 30.07 - 10 CLR None
2018-12-10 05:55 25 16 18 68 350° 6 - 30.06 - 10 CLR None
2018-12-10 05:35 25 16 - 68 - Calm - 30.06 - 10 CLR None
2018-12-10 05:15 25 16 19 68 350° 5 - 30.05 - 10 CLR None
2018-12-10 04:55 25 16 19 68 350° 5 - 30.05 - 10 CLR None
2018-12-10 04:35 25 16 19 68 350° 5 - 30.05 - 10 CLR None
2018-12-10 04:15 25 16 19 68 360° 5 - 30.05 - 10 CLR None
2018-12-10 03:55 25 16 19 68 360° 5 - 30.06 - 10 CLR None
2018-12-10 03:35 27 16 21 63 350° 5 - 30.06 - 10 CLR None
2018-12-10 03:15 27 16 20 63 10° 6 - 30.08 - 10 CLR None
2018-12-10 02:55 27 16 23 63 360° 3 - 30.08 - 10 CLR None
2018-12-10 02:35 27 14 20 58 350° 6 - 30.08 - 10 CLR None
2018-12-10 02:15 27 14 21 58 340° 5 - 30.08 - 10 CLR None
2018-12-10 01:55 27 14 18 58 360° 8 - 30.07 - 10 CLR None
2018-12-10 01:35 27 14 18 58 350° 8 - 30.08 - 10 CLR None
2018-12-10 01:15 27 16 18 63 340° 8 - 30.08 - 10 CLR None
2018-12-10 00:55 27 16 20 63 340° 6 - 30.09 - 10 CLR None
2018-12-10 00:35 25 16 19 68 Variable 5 - 30.09 - 10 CLR None
2018-12-10 00:15 25 16 - 68 - Calm - 30.09 - 10 CLR None
2018-12-09 23:55 27 16 - 63 - Calm - 30.11 - 10 CLR None
2018-12-09 23:35 27 16 - 63 - Calm - 30.12 - 10 CLR None
2018-12-09 23:15 28 16 25 58 320° 3 - 30.13 - 10 CLR None
2018-12-09 22:55 28 18 - 63 - Calm - 30.15 - 10 CLR None
2018-12-09 22:35 28 18 25 63 300° 3 - 30.16 - 10 CLR None
2018-12-09 22:15 30 18 27 58 Variable 3 - 30.16 - 10 CLR None
2018-12-09 21:55 30 18 27 58 Variable 3 - 30.16 - 10 CLR None
2018-12-09 21:35 30 18 - 58 - Calm - 30.16 - 10 CLR None

Support USWX by starting your Amazon purchase here.